sensor_id;sensor_type;location;lat;lon;timestamp;temperature;humidity
2202;DHT22;1107;48.654;9.250;2023-04-03T00:00:52;4.40;99.90
2202;DHT22;1107;48.654;9.250;2023-04-03T00:03:19;4.40;99.90
2202;DHT22;1107;48.654;9.250;2023-04-03T00:05:46;4.40;99.90
2202;DHT22;1107;48.654;9.250;2023-04-03T00:08:15;4.30;99.90
2202;DHT22;1107;48.654;9.250;2023-04-03T00:10:42;4.40;99.90
2202;DHT22;1107;48.654;9.250;2023-04-03T00:13:09;4.40;99.90
2202;DHT22;1107;48.654;9.250;2023-04-03T00:15:37;4.30;99.90
2202;DHT22;1107;48.654;9.250;2023-04-03T00:18:04;4.30;99.90
2202;DHT22;1107;48.654;9.250;2023-04-03T00:20:31;4.30;99.90
2202;DHT22;1107;48.654;9.250;2023-04-03T00:22:57;4.20;99.90
2202;DHT22;1107;48.654;9.250;2023-04-03T00:25:26;4.20;99.90
2202;DHT22;1107;48.654;9.250;2023-04-03T00:27:53;4.20;99.90
2202;DHT22;1107;48.654;9.250;2023-04-03T00:30:22;4.20;99.90
2202;DHT22;1107;48.654;9.250;2023-04-03T00:32:48;4.10;99.90
2202;DHT22;1107;48.654;9.250;2023-04-03T00:35:16;4.10;99.90
2202;DHT22;1107;48.654;9.250;2023-04-03T00:37:43;4.00;1.00
2202;DHT22;1107;48.654;9.250;2023-04-03T00:40:10;4.00;1.00
2202;DHT22;1107;48.654;9.250;2023-04-03T00:42:40;4.00;1.00
2202;DHT22;1107;48.654;9.250;2023-04-03T00:45:23;4.00;1.00
2202;DHT22;1107;48.654;9.250;2023-04-03T00:47:50;4.10;1.00
2202;DHT22;1107;48.654;9.250;2023-04-03T00:50:17;4.00;1.00
2202;DHT22;1107;48.654;9.250;2023-04-03T00:52:44;4.00;1.00
2202;DHT22;1107;48.654;9.250;2023-04-03T00:55:14;4.00;1.00
2202;DHT22;1107;48.654;9.250;2023-04-03T00:57:43;4.00;1.00
2202;DHT22;1107;48.654;9.250;2023-04-03T01:00:11;3.90;1.00
2202;DHT22;1107;48.654;9.250;2023-04-03T01:02:38;3.90;1.00
2202;DHT22;1107;48.654;9.250;2023-04-03T01:05:06;3.90;1.00
2202;DHT22;1107;48.654;9.250;2023-04-03T01:07:33;4.00;1.00
2202;DHT22;1107;48.654;9.250;2023-04-03T01:10:03;3.90;1.00
2202;DHT22;1107;48.654;9.250;2023-04-03T01:12:31;3.90;1.00
2202;DHT22;1107;48.654;9.250;2023-04-03T01:15:00;3.90;1.00
2202;DHT22;1107;48.654;9.250;2023-04-03T01:17:28;3.90;1.00
2202;DHT22;1107;48.654;9.250;2023-04-03T01:19:57;4.00;1.00
2202;DHT22;1107;48.654;9.250;2023-04-03T01:22:29;3.90;1.00
2202;DHT22;1107;48.654;9.250;2023-04-03T01:24:57;4.00;1.00
2202;DHT22;1107;48.654;9.250;2023-04-03T01:27:24;4.00;1.00
2202;DHT22;1107;48.654;9.250;2023-04-03T01:29:51;4.00;1.00
2202;DHT22;1107;48.654;9.250;2023-04-03T01:32:19;4.00;1.00
2202;DHT22;1107;48.654;9.250;2023-04-03T01:34:46;4.00;1.00
2202;DHT22;1107;48.654;9.250;2023-04-03T01:37:12;4.00;1.00
2202;DHT22;1107;48.654;9.250;2023-04-03T01:39:39;3.90;1.00
2202;DHT22;1107;48.654;9.250;2023-04-03T01:42:06;3.90;1.00
2202;DHT22;1107;48.654;9.250;2023-04-03T01:44:32;3.90;1.00
2202;DHT22;1107;48.654;9.250;2023-04-03T01:46:59;3.80;1.00
2202;DHT22;1107;48.654;9.250;2023-04-03T01:49:27;3.90;1.00
2202;DHT22;1107;48.654;9.250;2023-04-03T01:51:54;3.90;1.00
2202;DHT22;1107;48.654;9.250;2023-04-03T01:54:21;3.80;1.00
2202;DHT22;1107;48.654;9.250;2023-04-03T01:56:47;3.80;1.00
2202;DHT22;1107;48.654;9.250;2023-04-03T01:59:14;3.80;1.00
2202;DHT22;1107;48.654;9.250;2023-04-03T02:01:42;3.80;1.00
2202;DHT22;1107;48.654;9.250;2023-04-03T02:04:10;3.70;1.00
2202;DHT22;1107;48.654;9.250;2023-04-03T02:06:38;3.70;1.00
2202;DHT22;1107;48.654;9.250;2023-04-03T02:09:05;3.90;1.00
2202;DHT22;1107;48.654;9.250;2023-04-03T02:11:32;3.60;1.00
2202;DHT22;1107;48.654;9.250;2023-04-03T02:13:59;3.60;1.00
2202;DHT22;1107;48.654;9.250;2023-04-03T02:16:26;3.60;1.00
2202;DHT22;1107;48.654;9.250;2023-04-03T02:18:54;3.70;1.00
2202;DHT22;1107;48.654;9.250;2023-04-03T02:21:20;3.60;1.00
2202;DHT22;1107;48.654;9.250;2023-04-03T02:23:49;3.60;1.00
2202;DHT22;1107;48.654;9.250;2023-04-03T02:26:16;3.60;1.00
2202;DHT22;1107;48.654;9.250;2023-04-03T02:28:43;3.60;1.00
2202;DHT22;1107;48.654;9.250;2023-04-03T02:31:09;3.70;1.00
2202;DHT22;1107;48.654;9.250;2023-04-03T02:33:36;3.70;99.90
2202;DHT22;1107;48.654;9.250;2023-04-03T02:36:04;3.70;99.90
2202;DHT22;1107;48.654;9.250;2023-04-03T02:38:31;3.80;99.90
2202;DHT22;1107;48.654;9.250;2023-04-03T02:41:00;3.80;99.90
2202;DHT22;1107;48.654;9.250;2023-04-03T02:43:28;4.00;99.90
2202;DHT22;1107;48.654;9.250;2023-04-03T02:45:55;3.80;99.90
2202;DHT22;1107;48.654;9.250;2023-04-03T02:48:21;3.80;99.90
2202;DHT22;1107;48.654;9.250;2023-04-03T02:50:48;3.70;99.90
2202;DHT22;1107;48.654;9.250;2023-04-03T02:53:15;3.80;99.90
2202;DHT22;1107;48.654;9.250;2023-04-03T02:55:42;3.80;99.90
2202;DHT22;1107;48.654;9.250;2023-04-03T02:58:10;3.80;99.90
2202;DHT22;1107;48.654;9.250;2023-04-03T03:00:37;3.80;99.90
2202;DHT22;1107;48.654;9.250;2023-04-03T03:03:04;3.80;99.90
2202;DHT22;1107;48.654;9.250;2023-04-03T03:05:31;3.80;99.90
2202;DHT22;1107;48.654;9.250;2023-04-03T03:07:57;3.80;99.90
2202;DHT22;1107;48.654;9.250;2023-04-03T03:10:24;3.80;99.90
2202;DHT22;1107;48.654;9.250;2023-04-03T03:12:51;3.70;99.90
2202;DHT22;1107;48.654;9.250;2023-04-03T03:15:19;3.70;99.90
2202;DHT22;1107;48.654;9.250;2023-04-03T03:17:46;3.70;99.90
2202;DHT22;1107;48.654;9.250;2023-04-03T03:20:13;3.60;99.90
2202;DHT22;1107;48.654;9.250;2023-04-03T03:22:40;3.70;99.90
2202;DHT22;1107;48.654;9.250;2023-04-03T03:25:07;3.70;99.90
2202;DHT22;1107;48.654;9.250;2023-04-03T03:27:34;3.70;99.90
2202;DHT22;1107;48.654;9.250;2023-04-03T03:30:01;3.70;99.90
2202;DHT22;1107;48.654;9.250;2023-04-03T03:32:29;3.70;99.90
2202;DHT22;1107;48.654;9.250;2023-04-03T03:34:55;3.80;99.90
2202;DHT22;1107;48.654;9.250;2023-04-03T03:37:22;3.80;94.90
2202;DHT22;1107;48.654;9.250;2023-04-03T03:39:49;3.80;99.90
2202;DHT22;1107;48.654;9.250;2023-04-03T03:42:16;3.80;82.00
2202;DHT22;1107;48.654;9.250;2023-04-03T03:44:42;3.80;99.90
2202;DHT22;1107;48.654;9.250;2023-04-03T03:47:09;3.80;96.20
2202;DHT22;1107;48.654;9.250;2023-04-03T03:49:37;3.80;86.30
2202;DHT22;1107;48.654;9.250;2023-04-03T03:52:04;3.90;94.80
2202;DHT22;1107;48.654;9.250;2023-04-03T03:54:31;3.90;94.60
2202;DHT22;1107;48.654;9.250;2023-04-03T03:56:57;3.90;30.10
2202;DHT22;1107;48.654;9.250;2023-04-03T03:59:24;3.80;19.70
2202;DHT22;1107;48.654;9.250;2023-04-03T04:01:51;3.80;43.60
2202;DHT22;1107;48.654;9.250;2023-04-03T04:04:18;3.80;39.10
2202;DHT22;1107;48.654;9.250;2023-04-03T04:06:46;3.80;56.40
2202;DHT22;1107;48.654;9.250;2023-04-03T04:09:13;3.70;69.60
2202;DHT22;1107;48.654;9.250;2023-04-03T04:11:40;3.70;59.10
2202;DHT22;1107;48.654;9.250;2023-04-03T04:14:06;3.70;99.90
2202;DHT22;1107;48.654;9.250;2023-04-03T04:16:35;3.70;39.20
2202;DHT22;1107;48.654;9.250;2023-04-03T04:19:02;3.70;59.40
2202;DHT22;1107;48.654;9.250;2023-04-03T04:21:29;3.70;24.40
2202;DHT22;1107;48.654;9.250;2023-04-03T04:23:57;3.70;20.30
2202;DHT22;1107;48.654;9.250;2023-04-03T04:26:23;3.70;36.40
2202;DHT22;1107;48.654;9.250;2023-04-03T04:28:50;3.80;11.80
2202;DHT22;1107;48.654;9.250;2023-04-03T04:31:17;3.80;1.00
2202;DHT22;1107;48.654;9.250;2023-04-03T04:33:43;3.70;1.00
2202;DHT22;1107;48.654;9.250;2023-04-03T04:36:10;3.70;1.00
2202;DHT22;1107;48.654;9.250;2023-04-03T04:38:37;3.80;1.00
2202;DHT22;1107;48.654;9.250;2023-04-03T04:41:05;3.70;1.00
2202;DHT22;1107;48.654;9.250;2023-04-03T04:43:32;3.80;1.00
2202;DHT22;1107;48.654;9.250;2023-04-03T04:46:02;3.70;1.00
2202;DHT22;1107;48.654;9.250;2023-04-03T04:48:29;3.70;1.00
2202;DHT22;1107;48.654;9.250;2023-04-03T04:50:56;3.70;1.00
2202;DHT22;1107;48.654;9.250;2023-04-03T04:53:22;3.70;1.00
2202;DHT22;1107;48.654;9.250;2023-04-03T04:55:49;3.70;1.00
2202;DHT22;1107;48.654;9.250;2023-04-03T04:58:17;3.70;1.00
2202;DHT22;1107;48.654;9.250;2023-04-03T05:00:45;3.70;1.00
2202;DHT22;1107;48.654;9.250;2023-04-03T05:03:12;3.80;1.00
2202;DHT22;1107;48.654;9.250;2023-04-03T05:05:38;3.80;1.00
2202;DHT22;1107;48.654;9.250;2023-04-03T05:08:05;3.80;1.00
2202;DHT22;1107;48.654;9.250;2023-04-03T05:10:33;3.80;1.00
2202;DHT22;1107;48.654;9.250;2023-04-03T05:13:00;3.70;1.00
2202;DHT22;1107;48.654;9.250;2023-04-03T05:15:28;3.80;1.00
2202;DHT22;1107;48.654;9.250;2023-04-03T05:17:55;3.90;1.00
2202;DHT22;1107;48.654;9.250;2023-04-03T05:20:21;3.80;1.00
2202;DHT22;1107;48.654;9.250;2023-04-03T05:22:48;3.90;1.00
2202;DHT22;1107;48.654;9.250;2023-04-03T05:25:15;3.90;1.00
2202;DHT22;1107;48.654;9.250;2023-04-03T05:27:42;3.80;1.00
2202;DHT22;1107;48.654;9.250;2023-04-03T05:30:08;3.90;1.00
2202;DHT22;1107;48.654;9.250;2023-04-03T05:32:37;3.90;1.00
2202;DHT22;1107;48.654;9.250;2023-04-03T05:35:04;3.90;1.00
2202;DHT22;1107;48.654;9.250;2023-04-03T05:37:31;4.00;1.00
2202;DHT22;1107;48.654;9.250;2023-04-03T05:39:57;4.00;1.00
2202;DHT22;1107;48.654;9.250;2023-04-03T05:42:24;4.10;1.00
2202;DHT22;1107;48.654;9.250;2023-04-03T05:44:51;4.00;1.00
2202;DHT22;1107;48.654;9.250;2023-04-03T05:47:18;4.00;1.00
2202;DHT22;1107;48.654;9.250;2023-04-03T05:49:46;4.00;1.00
2202;DHT22;1107;48.654;9.250;2023-04-03T05:52:16;4.00;1.00
2202;DHT22;1107;48.654;9.250;2023-04-03T05:54:44;4.00;1.00
2202;DHT22;1107;48.654;9.250;2023-04-03T05:57:13;4.10;1.00
2202;DHT22;1107;48.654;9.250;2023-04-03T05:59:41;4.10;1.00
2202;DHT22;1107;48.654;9.250;2023-04-03T06:02:08;4.00;1.00
2202;DHT22;1107;48.654;9.250;2023-04-03T06:04:36;4.00;1.00
2202;DHT22;1107;48.654;9.250;2023-04-03T06:07:04;4.10;1.00
2202;DHT22;1107;48.654;9.250;2023-04-03T06:09:31;4.10;1.00
2202;DHT22;1107;48.654;9.250;2023-04-03T06:11:58;4.00;1.00
2202;DHT22;1107;48.654;9.250;2023-04-03T06:14:26;4.00;1.00
2202;DHT22;1107;48.654;9.250;2023-04-03T06:16:53;4.10;1.00
2202;DHT22;1107;48.654;9.250;2023-04-03T06:19:20;4.10;1.00
2202;DHT22;1107;48.654;9.250;2023-04-03T06:21:47;4.20;1.00
2202;DHT22;1107;48.654;9.250;2023-04-03T06:24:15;4.20;1.00
2202;DHT22;1107;48.654;9.250;2023-04-03T06:26:43;4.30;1.00
2202;DHT22;1107;48.654;9.250;2023-04-03T06:29:10;4.30;1.00
2202;DHT22;1107;48.654;9.250;2023-04-03T06:31:37;4.30;1.00
2202;DHT22;1107;48.654;9.250;2023-04-03T06:34:04;4.40;1.00
2202;DHT22;1107;48.654;9.250;2023-04-03T06:36:31;4.40;1.00
2202;DHT22;1107;48.654;9.250;2023-04-03T06:38:57;4.50;1.00
2202;DHT22;1107;48.654;9.250;2023-04-03T06:41:26;4.50;1.00
2202;DHT22;1107;48.654;9.250;2023-04-03T06:43:52;4.50;1.00
2202;DHT22;1107;48.654;9.250;2023-04-03T06:46:21;4.50;1.00
2202;DHT22;1107;48.654;9.250;2023-04-03T06:48:48;4.60;1.00
2202;DHT22;1107;48.654;9.250;2023-04-03T06:51:19;4.80;1.00
2202;DHT22;1107;48.654;9.250;2023-04-03T06:53:46;4.90;1.00
2202;DHT22;1107;48.654;9.250;2023-04-03T06:56:13;4.90;1.00
2202;DHT22;1107;48.654;9.250;2023-04-03T06:58:41;5.00;1.00
2202;DHT22;1107;48.654;9.250;2023-04-03T07:01:08;5.10;1.00
2202;DHT22;1107;48.654;9.250;2023-04-03T07:03:36;5.20;1.00
2202;DHT22;1107;48.654;9.250;2023-04-03T07:06:03;5.50;1.00
2202;DHT22;1107;48.654;9.250;2023-04-03T07:08:30;5.70;1.00
2202;DHT22;1107;48.654;9.250;2023-04-03T07:10:57;6.10;1.00
2202;DHT22;1107;48.654;9.250;2023-04-03T07:13:23;5.90;1.00
2202;DHT22;1107;48.654;9.250;2023-04-03T07:15:52;6.00;1.00
2202;DHT22;1107;48.654;9.250;2023-04-03T07:18:18;6.00;1.00
2202;DHT22;1107;48.654;9.250;2023-04-03T07:20:46;5.80;1.00
2202;DHT22;1107;48.654;9.250;2023-04-03T07:23:13;5.60;1.00
2202;DHT22;1107;48.654;9.250;2023-04-03T07:25:41;5.60;1.00
2202;DHT22;1107;48.654;9.250;2023-04-03T07:28:08;5.60;1.00
2202;DHT22;1107;48.654;9.250;2023-04-03T07:30:41;5.60;1.00
2202;DHT22;1107;48.654;9.250;2023-04-03T07:33:09;5.60;1.00
2202;DHT22;1107;48.654;9.250;2023-04-03T07:35:36;5.60;1.00
2202;DHT22;1107;48.654;9.250;2023-04-03T07:38:03;5.90;1.00
2202;DHT22;1107;48.654;9.250;2023-04-03T07:40:30;6.10;1.00
2202;DHT22;1107;48.654;9.250;2023-04-03T07:42:57;6.00;1.00
2202;DHT22;1107;48.654;9.250;2023-04-03T07:45:25;6.20;1.00
2202;DHT22;1107;48.654;9.250;2023-04-03T07:47:52;6.20;1.00
2202;DHT22;1107;48.654;9.250;2023-04-03T07:50:20;6.30;1.00
2202;DHT22;1107;48.654;9.250;2023-04-03T07:52:47;6.30;1.00
2202;DHT22;1107;48.654;9.250;2023-04-03T07:55:14;6.30;1.00
2202;DHT22;1107;48.654;9.250;2023-04-03T07:57:41;6.40;1.00
2202;DHT22;1107;48.654;9.250;2023-04-03T08:00:08;6.50;1.00
2202;DHT22;1107;48.654;9.250;2023-04-03T08:02:35;6.40;1.00
2202;DHT22;1107;48.654;9.250;2023-04-03T08:05:02;6.50;1.00
2202;DHT22;1107;48.654;9.250;2023-04-03T08:07:30;6.70;1.00
2202;DHT22;1107;48.654;9.250;2023-04-03T08:09:57;6.90;1.00
2202;DHT22;1107;48.654;9.250;2023-04-03T08:12:24;7.00;1.00
2202;DHT22;1107;48.654;9.250;2023-04-03T08:14:50;7.20;1.00
2202;DHT22;1107;48.654;9.250;2023-04-03T08:17:17;7.30;1.00
2202;DHT22;1107;48.654;9.250;2023-04-03T08:19:44;7.20;1.00
2202;DHT22;1107;48.654;9.250;2023-04-03T08:22:10;7.20;1.00
2202;DHT22;1107;48.654;9.250;2023-04-03T08:24:38;7.30;1.00
2202;DHT22;1107;48.654;9.250;2023-04-03T08:27:05;7.30;1.00
2202;DHT22;1107;48.654;9.250;2023-04-03T08:29:32;7.50;1.00
2202;DHT22;1107;48.654;9.250;2023-04-03T08:31:59;7.50;99.90
2202;DHT22;1107;48.654;9.250;2023-04-03T08:34:25;7.70;99.90
2202;DHT22;1107;48.654;9.250;2023-04-03T08:36:52;7.70;99.90
2202;DHT22;1107;48.654;9.250;2023-04-03T08:39:19;7.80;99.90
2202;DHT22;1107;48.654;9.250;2023-04-03T08:41:47;7.90;99.90
2202;DHT22;1107;48.654;9.250;2023-04-03T08:44:15;7.80;99.90
2202;DHT22;1107;48.654;9.250;2023-04-03T08:46:46;7.80;99.90
2202;DHT22;1107;48.654;9.250;2023-04-03T08:49:16;7.60;99.90
2202;DHT22;1107;48.654;9.250;2023-04-03T08:51:45;7.90;99.90
2202;DHT22;1107;48.654;9.250;2023-04-03T08:54:15;8.30;99.90
2202;DHT22;1107;48.654;9.250;2023-04-03T08:56:44;8.80;99.90
2202;DHT22;1107;48.654;9.250;2023-04-03T08:59:18;9.40;99.90
2202;DHT22;1107;48.654;9.250;2023-04-03T09:01:46;9.90;99.90
2202;DHT22;1107;48.654;9.250;2023-04-03T09:04:14;10.10;99.90
2202;DHT22;1107;48.654;9.250;2023-04-03T09:06:45;9.80;99.90
2202;DHT22;1107;48.654;9.250;2023-04-03T09:09:19;9.20;99.90
2202;DHT22;1107;48.654;9.250;2023-04-03T09:11:56;9.00;99.90
2202;DHT22;1107;48.654;9.250;2023-04-03T09:14:33;8.80;99.90
2202;DHT22;1107;48.654;9.250;2023-04-03T09:17:03;8.50;99.90
2202;DHT22;1107;48.654;9.250;2023-04-03T09:19:38;8.60;99.90
2202;DHT22;1107;48.654;9.250;2023-04-03T09:22:13;8.30;99.90
2202;DHT22;1107;48.654;9.250;2023-04-03T09:24:44;7.80;99.90
2202;DHT22;1107;48.654;9.250;2023-04-03T09:27:12;7.50;99.90
2202;DHT22;1107;48.654;9.250;2023-04-03T09:29:42;7.50;99.90
2202;DHT22;1107;48.654;9.250;2023-04-03T09:32:30;7.70;99.90
2202;DHT22;1107;48.654;9.250;2023-04-03T09:34:59;8.00;99.90
2202;DHT22;1107;48.654;9.250;2023-04-03T09:37:40;7.90;99.90
2202;DHT22;1107;48.654;9.250;2023-04-03T09:43:26;8.20;99.90
2202;DHT22;1107;48.654;9.250;2023-04-03T09:45:56;8.20;99.90
2202;DHT22;1107;48.654;9.250;2023-04-03T09:48:24;8.30;99.90
2202;DHT22;1107;48.654;9.250;2023-04-03T09:50:58;8.10;99.90
2202;DHT22;1107;48.654;9.250;2023-04-03T09:53:32;8.10;99.90
2202;DHT22;1107;48.654;9.250;2023-04-03T09:56:00;8.00;99.90
2202;DHT22;1107;48.654;9.250;2023-04-03T09:58:30;7.90;99.90
2202;DHT22;1107;48.654;9.250;2023-04-03T10:01:00;7.70;99.90
2202;DHT22;1107;48.654;9.250;2023-04-03T10:03:31;7.70;99.90
2202;DHT22;1107;48.654;9.250;2023-04-03T10:05:58;7.80;99.90
2202;DHT22;1107;48.654;9.250;2023-04-03T10:08:28;7.90;99.90
2202;DHT22;1107;48.654;9.250;2023-04-03T10:11:14;7.90;99.90
2202;DHT22;1107;48.654;9.250;2023-04-03T10:13:54;8.10;99.90
2202;DHT22;1107;48.654;9.250;2023-04-03T10:16:27;8.10;99.90
2202;DHT22;1107;48.654;9.250;2023-04-03T10:19:06;7.90;99.90
2202;DHT22;1107;48.654;9.250;2023-04-03T10:21:43;8.10;99.90
2202;DHT22;1107;48.654;9.250;2023-04-03T10:24:14;8.10;99.90
2202;DHT22;1107;48.654;9.250;2023-04-03T10:26:52;8.30;99.90
2202;DHT22;1107;48.654;9.250;2023-04-03T10:29:36;8.60;99.90
2202;DHT22;1107;48.654;9.250;2023-04-03T10:32:26;8.60;99.90
2202;DHT22;1107;48.654;9.250;2023-04-03T10:35:00;8.50;99.90
2202;DHT22;1107;48.654;9.250;2023-04-03T10:37:35;8.60;99.90
2202;DHT22;1107;48.654;9.250;2023-04-03T10:40:24;8.90;99.90
2202;DHT22;1107;48.654;9.250;2023-04-03T10:43:01;8.90;99.90
2202;DHT22;1107;48.654;9.250;2023-04-03T10:45:37;8.70;99.90
2202;DHT22;1107;48.654;9.250;2023-04-03T10:48:17;8.60;99.90
2202;DHT22;1107;48.654;9.250;2023-04-03T10:51:04;8.20;99.90
2202;DHT22;1107;48.654;9.250;2023-04-03T10:53:39;8.00;99.90
2202;DHT22;1107;48.654;9.250;2023-04-03T10:56:13;7.70;99.90
2202;DHT22;1107;48.654;9.250;2023-04-03T10:58:44;7.90;99.90
2202;DHT22;1107;48.654;9.250;2023-04-03T11:01:15;7.90;99.90
2202;DHT22;1107;48.654;9.250;2023-04-03T11:03:47;8.10;99.90
2202;DHT22;1107;48.654;9.250;2023-04-03T11:06:18;8.40;99.90
2202;DHT22;1107;48.654;9.250;2023-04-03T11:08:49;8.10;99.90
2202;DHT22;1107;48.654;9.250;2023-04-03T11:11:24;8.10;99.90
2202;DHT22;1107;48.654;9.250;2023-04-03T11:13:54;8.10;99.90
2202;DHT22;1107;48.654;9.250;2023-04-03T11:16:27;8.00;99.90
2202;DHT22;1107;48.654;9.250;2023-04-03T11:18:59;8.10;99.90
2202;DHT22;1107;48.654;9.250;2023-04-03T11:21:29;8.10;99.90
2202;DHT22;1107;48.654;9.250;2023-04-03T11:24:02;7.90;99.90
2202;DHT22;1107;48.654;9.250;2023-04-03T11:26:35;7.80;99.90
2202;DHT22;1107;48.654;9.250;2023-04-03T11:29:07;7.80;99.90
2202;DHT22;1107;48.654;9.250;2023-04-03T11:31:44;7.80;99.90
2202;DHT22;1107;48.654;9.250;2023-04-03T11:34:26;7.70;99.90
2202;DHT22;1107;48.654;9.250;2023-04-03T11:37:00;7.70;99.90
2202;DHT22;1107;48.654;9.250;2023-04-03T11:39:31;7.80;99.90
2202;DHT22;1107;48.654;9.250;2023-04-03T11:42:14;7.80;99.90
2202;DHT22;1107;48.654;9.250;2023-04-03T11:44:42;8.00;99.90
2202;DHT22;1107;48.654;9.250;2023-04-03T11:47:10;8.00;99.90
2202;DHT22;1107;48.654;9.250;2023-04-03T11:49:59;8.00;99.90
2202;DHT22;1107;48.654;9.250;2023-04-03T11:53:01;7.90;99.90
2202;DHT22;1107;48.654;9.250;2023-04-03T11:59:16;8.00;99.90
2202;DHT22;1107;48.654;9.250;2023-04-03T12:01:46;7.80;99.90
2202;DHT22;1107;48.654;9.250;2023-04-03T12:04:14;7.60;99.90
2202;DHT22;1107;48.654;9.250;2023-04-03T12:07:02;7.50;99.90
2202;DHT22;1107;48.654;9.250;2023-04-03T12:10:14;7.30;99.90
2202;DHT22;1107;48.654;9.250;2023-04-03T12:12:42;7.20;99.90
2202;DHT22;1107;48.654;9.250;2023-04-03T12:18:56;7.20;99.90
2202;DHT22;1107;48.654;9.250;2023-04-03T12:21:36;7.40;99.90
2202;DHT22;1107;48.654;9.250;2023-04-03T12:24:27;7.40;99.90
2202;DHT22;1107;48.654;9.250;2023-04-03T12:27:02;7.70;99.90
2202;DHT22;1107;48.654;9.250;2023-04-03T12:29:33;7.70;99.90
2202;DHT22;1107;48.654;9.250;2023-04-03T12:32:08;8.00;99.90
2202;DHT22;1107;48.654;9.250;2023-04-03T12:34:45;8.30;99.90
2202;DHT22;1107;48.654;9.250;2023-04-03T12:37:21;8.50;99.90
2202;DHT22;1107;48.654;9.250;2023-04-03T12:39:56;8.50;99.90
2202;DHT22;1107;48.654;9.250;2023-04-03T12:42:40;8.30;99.90
2202;DHT22;1107;48.654;9.250;2023-04-03T12:45:15;8.20;99.90
2202;DHT22;1107;48.654;9.250;2023-04-03T12:47:43;7.70;99.90
2202;DHT22;1107;48.654;9.250;2023-04-03T12:50:17;7.50;99.90
2202;DHT22;1107;48.654;9.250;2023-04-03T12:52:47;7.30;99.90
2202;DHT22;1107;48.654;9.250;2023-04-03T12:55:18;7.20;99.90
2202;DHT22;1107;48.654;9.250;2023-04-03T12:57:45;7.30;99.90
2202;DHT22;1107;48.654;9.250;2023-04-03T13:00:25;7.40;99.90
2202;DHT22;1107;48.654;9.250;2023-04-03T13:02:53;7.60;99.90
2202;DHT22;1107;48.654;9.250;2023-04-03T13:05:19;7.90;99.90
2202;DHT22;1107;48.654;9.250;2023-04-03T13:07:48;8.00;99.90
2202;DHT22;1107;48.654;9.250;2023-04-03T13:10:16;8.00;99.90
2202;DHT22;1107;48.654;9.250;2023-04-03T13:12:49;8.10;99.90
2202;DHT22;1107;48.654;9.250;2023-04-03T13:15:17;8.10;99.90
2202;DHT22;1107;48.654;9.250;2023-04-03T13:17:44;8.10;99.90
2202;DHT22;1107;48.654;9.250;2023-04-03T13:20:12;8.20;99.90
2202;DHT22;1107;48.654;9.250;2023-04-03T13:22:40;8.30;99.90
2202;DHT22;1107;48.654;9.250;2023-04-03T13:25:09;8.20;99.90
2202;DHT22;1107;48.654;9.250;2023-04-03T13:27:37;8.20;99.90
2202;DHT22;1107;48.654;9.250;2023-04-03T13:30:17;8.10;99.90
2202;DHT22;1107;48.654;9.250;2023-04-03T13:32:44;8.00;99.90
2202;DHT22;1107;48.654;9.250;2023-04-03T13:35:27;7.80;99.90
2202;DHT22;1107;48.654;9.250;2023-04-03T13:37:54;7.70;99.90
2202;DHT22;1107;48.654;9.250;2023-04-03T13:40:21;7.50;99.90
2202;DHT22;1107;48.654;9.250;2023-04-03T13:42:57;7.60;99.90
2202;DHT22;1107;48.654;9.250;2023-04-03T13:45:26;7.70;99.90
2202;DHT22;1107;48.654;9.250;2023-04-03T13:48:06;7.80;99.90
2202;DHT22;1107;48.654;9.250;2023-04-03T13:50:41;8.00;99.90
2202;DHT22;1107;48.654;9.250;2023-04-03T13:53:16;8.00;99.90
2202;DHT22;1107;48.654;9.250;2023-04-03T13:55:51;8.30;99.90
2202;DHT22;1107;48.654;9.250;2023-04-03T13:58:21;8.20;99.90
2202;DHT22;1107;48.654;9.250;2023-04-03T14:00:50;8.10;99.90
2202;DHT22;1107;48.654;9.250;2023-04-03T14:03:19;8.10;99.90
2202;DHT22;1107;48.654;9.250;2023-04-03T14:05:46;8.20;99.90
2202;DHT22;1107;48.654;9.250;2023-04-03T14:08:13;8.30;99.90
2202;DHT22;1107;48.654;9.250;2023-04-03T14:10:41;8.50;99.90
2202;DHT22;1107;48.654;9.250;2023-04-03T14:13:09;8.60;99.90
2202;DHT22;1107;48.654;9.250;2023-04-03T14:15:36;9.10;99.90
2202;DHT22;1107;48.654;9.250;2023-04-03T14:18:04;9.40;99.90
2202;DHT22;1107;48.654;9.250;2023-04-03T14:20:31;9.50;99.90
2202;DHT22;1107;48.654;9.250;2023-04-03T14:22:58;9.60;99.90
2202;DHT22;1107;48.654;9.250;2023-04-03T14:25:24;9.60;99.90
2202;DHT22;1107;48.654;9.250;2023-04-03T14:27:52;9.60;99.90
2202;DHT22;1107;48.654;9.250;2023-04-03T14:30:20;9.30;99.90
2202;DHT22;1107;48.654;9.250;2023-04-03T14:32:47;8.90;99.90
2202;DHT22;1107;48.654;9.250;2023-04-03T14:35:16;8.50;99.90
2202;DHT22;1107;48.654;9.250;2023-04-03T14:37:44;8.10;99.90
2202;DHT22;1107;48.654;9.250;2023-04-03T14:40:11;8.00;99.90
2202;DHT22;1107;48.654;9.250;2023-04-03T14:42:39;7.80;99.90
2202;DHT22;1107;48.654;9.250;2023-04-03T14:45:07;7.80;99.90
2202;DHT22;1107;48.654;9.250;2023-04-03T14:47:34;7.90;99.90
2202;DHT22;1107;48.654;9.250;2023-04-03T14:50:03;7.90;99.90
2202;DHT22;1107;48.654;9.250;2023-04-03T14:52:33;8.00;99.90
2202;DHT22;1107;48.654;9.250;2023-04-03T14:55:00;8.30;99.90
2202;DHT22;1107;48.654;9.250;2023-04-03T14:57:28;8.40;99.90
2202;DHT22;1107;48.654;9.250;2023-04-03T14:59:55;8.30;99.90
2202;DHT22;1107;48.654;9.250;2023-04-03T15:02:24;8.20;99.90
2202;DHT22;1107;48.654;9.250;2023-04-03T15:04:51;8.20;99.90
2202;DHT22;1107;48.654;9.250;2023-04-03T15:07:19;8.10;99.90
2202;DHT22;1107;48.654;9.250;2023-04-03T15:09:47;7.90;99.90
2202;DHT22;1107;48.654;9.250;2023-04-03T15:12:14;7.70;99.90
2202;DHT22;1107;48.654;9.250;2023-04-03T15:14:41;7.60;99.90
2202;DHT22;1107;48.654;9.250;2023-04-03T15:17:08;7.50;99.90
2202;DHT22;1107;48.654;9.250;2023-04-03T15:19:37;7.40;99.90
2202;DHT22;1107;48.654;9.250;2023-04-03T15:22:05;7.40;99.90
2202;DHT22;1107;48.654;9.250;2023-04-03T15:24:31;7.40;99.90
2202;DHT22;1107;48.654;9.250;2023-04-03T15:27:00;7.50;99.90
2202;DHT22;1107;48.654;9.250;2023-04-03T15:29:27;7.60;99.90
2202;DHT22;1107;48.654;9.250;2023-04-03T15:31:54;7.60;99.90
2202;DHT22;1107;48.654;9.250;2023-04-03T15:34:21;7.50;99.90
2202;DHT22;1107;48.654;9.250;2023-04-03T15:36:48;7.30;99.90
2202;DHT22;1107;48.654;9.250;2023-04-03T15:39:17;7.30;99.90
2202;DHT22;1107;48.654;9.250;2023-04-03T15:41:45;7.40;99.90
2202;DHT22;1107;48.654;9.250;2023-04-03T15:44:13;7.50;99.90
2202;DHT22;1107;48.654;9.250;2023-04-03T15:46:42;7.50;99.90
2202;DHT22;1107;48.654;9.250;2023-04-03T15:49:09;7.40;99.90
2202;DHT22;1107;48.654;9.250;2023-04-03T15:51:37;7.40;99.90
2202;DHT22;1107;48.654;9.250;2023-04-03T15:54:03;7.40;99.90
2202;DHT22;1107;48.654;9.250;2023-04-03T15:56:30;7.50;99.90
2202;DHT22;1107;48.654;9.250;2023-04-03T15:58:57;7.60;99.90
2202;DHT22;1107;48.654;9.250;2023-04-03T16:01:25;7.80;99.90
2202;DHT22;1107;48.654;9.250;2023-04-03T16:03:51;7.70;99.90
2202;DHT22;1107;48.654;9.250;2023-04-03T16:06:18;7.80;99.90
2202;DHT22;1107;48.654;9.250;2023-04-03T16:08:45;7.70;99.90
2202;DHT22;1107;48.654;9.250;2023-04-03T16:11:12;7.70;99.90
2202;DHT22;1107;48.654;9.250;2023-04-03T16:13:40;7.50;99.90
2202;DHT22;1107;48.654;9.250;2023-04-03T16:16:07;7.30;99.90
2202;DHT22;1107;48.654;9.250;2023-04-03T16:18:35;7.20;99.90
2202;DHT22;1107;48.654;9.250;2023-04-03T16:21:02;7.00;99.90
2202;DHT22;1107;48.654;9.250;2023-04-03T16:23:29;6.90;99.90
2202;DHT22;1107;48.654;9.250;2023-04-03T16:25:56;6.80;99.90
2202;DHT22;1107;48.654;9.250;2023-04-03T16:28:23;6.80;99.90
2202;DHT22;1107;48.654;9.250;2023-04-03T16:30:49;6.70;99.90
2202;DHT22;1107;48.654;9.250;2023-04-03T16:33:16;6.70;99.90
2202;DHT22;1107;48.654;9.250;2023-04-03T16:35:48;6.70;99.90
2202;DHT22;1107;48.654;9.250;2023-04-03T16:38:14;6.60;99.90
2202;DHT22;1107;48.654;9.250;2023-04-03T16:40:41;6.60;99.90
2202;DHT22;1107;48.654;9.250;2023-04-03T16:43:08;6.60;99.90
2202;DHT22;1107;48.654;9.250;2023-04-03T16:45:35;6.60;99.90
2202;DHT22;1107;48.654;9.250;2023-04-03T16:48:02;6.70;99.90